Historyczne dane pomiarowe

Dodano dane terminowe – wersja testowa.

Dane z okresu 1951-2019

Wersja bazy: 1.34 [2019-03-16, lista zmian], aktualizacja planowana na 2019-04-15

Dane meteo z obszaru Polski uzyskane na podstawie danych udostępnionych przez Instytut Meteorologii i Gospodarki Wodnej – Państwowy Instytut Badawczy.

 

Wybierz Datę:    

       

TemperaturaWilgotnośćWiatrCiśnienieOpadyŚniegCzas trwania zjawisk
 Stacja t tx tn tng RH VA  wxwx mslp ppp RRR   cm mm wxwxwxwxwxwxwx
1964-05-15 10.9 13.8 5.3--- 5.3 6.0---- 0.0------------
1964-05-16 11.6 15.9 6.4--- 1.7 3.3---- 0.0------------
1964-05-17 13.6 17.5 2.2--- 3.7 0.7---- 0.0------------
1964-05-18 15.3 21.8 9.7--- 2.3 1.7---- 0.0------------
1964-05-19 10.7 18.3 3.5--- 1.0 1.3---- 0.0------------
1964-05-20 15.4 20.8 3.3--- 3.7 1.0---- 0.0------------
1964-05-21 13.4 18.5 9.5--- 4.3 3.7---- 0.0------------
1964-05-22 14.9 21.8 4.3--- 2.0 0.7---- 0.0------------
1964-05-23 16.6 23.4 5.5--- 0.0 1.7---- 0.0------------
1964-05-24 17.7 24.5 8.0--- 0.0 1.7---- 0.0------------
1964-05-25 19.5 23.9 6.8--- 0.0 1.7---- 0.0------------
1964-05-26 18.5 24.9 6.7--- 0.7 2.3---- 0.0------------
1964-05-27 18.9 26.7 7.8--- 0.7 1.0---- 0.0------------
1964-05-28 19.8 27.4 8.4--- 3.3 1.3---- 3.3------------
1964-05-29 18.1 24.8 12.5--- 1.3 0.7---- 0.0------------
1964-05-30 19.5 26.3 9.2--- 0.7 1.3---- 0.0------------
1964-05-31 17.5 19.8 11.7--- 6.3 1.0---- 0.0------------
1964-06-01 21.3 30.4 10.3--- 1.0 2.0---- 0.0------------
1964-06-02 21.3 31.3 12.1--- 2.7 1.0---- 3.1------------
1964-06-03 19.0 25.7 10.5--- 2.3 0.3---- 1.7------------
1964-06-04 17.3 24.7 11.0--- 0.0 2.3---- 0.0------------
1964-06-05 19.7 28.7 9.5--- 0.0 0.7---- 0.0------------
1964-06-06 19.0 23.3 13.2--- 2.0 1.7---- 0.0------------
1964-06-07 20.7 26.3 11.4--- 0.3 1.0---- 0.5------------
1964-06-08 17.7 21.7 15.9--- 5.0 2.0---- 0.0------------
1964-06-09 15.9 21.8 9.7--- 0.7 3.3---- 0.0------------
1964-06-10 17.3 25.8 6.2--- 0.3 1.0---- 0.0------------
1964-06-11 21.1 28.7 7.8--- 0.3 1.0---- 0.0------------
1964-06-12 23.7 31.8 10.8--- 0.0 0.7---- 0.0------------
1964-06-13 25.0 33.3 14.4--- 0.3 2.0---- 0.0------------
131.2 ms

 

Źródłem pochodzenia danych jest Instytut Meteorologii i Gospodarki Wodnej – Państwowy Instytut Badawczy. Dane Instytutu Meteorologii i Gospodarki Wodnej – Państwowego Instytutu Badawczego zostały przetworzone.

Dane źródłowe można odnaleźć na stronie https://dane.imgw.pl